Quyon, Canada
Current Conditions -  °F | °C
As of 8:00 PM on Tuesday 21 Oct 2014 (Local Time) from CYOW Reporting Station
Overcast Overcast  
Wind Chill: 38°   Ceiling: 2700
Heat Index: 45°   Visibility: 15mi
Dew Point: 36°   Wind: 13mph
Humidity: 71%   Direction: 20°NNE
Pressure: 30.13"   Gusts: NA
Location:  45.52°N, 76.23°W
Report Text: CYOW 220000Z 02011KT 15SM OVC027 07/02 A3013 RMK SC8 SLP206
Loading
Personal Weather Stations






























Interactive Weather Map
Tropical Storm Tracking
New forecast layout! Learn more

10-Day Weather Forecast

Advertisements
Track Severe Weather on mobile